sensor_id;sensor_type;location;lat;lon;timestamp;pressure;altitude;pressure_sealevel;temperature;humidity
74798;BME280;63326;45.088;7.658;2023-02-02T00:01:00;99213.88;;;2.43;66.79
74798;BME280;63326;45.088;7.658;2023-02-02T00:03:27;99247.72;;;2.62;66.88
74798;BME280;63326;45.088;7.658;2023-02-02T00:05:53;99219.44;;;2.51;67.01
74798;BME280;63326;45.088;7.658;2023-02-02T00:08:20;99250.09;;;2.42;67.51
74798;BME280;63326;45.088;7.658;2023-02-02T00:10:47;99233.25;;;2.43;67.84
74798;BME280;63326;45.088;7.658;2023-02-02T00:13:15;99247.31;;;2.44;67.76
74798;BME280;63326;45.088;7.658;2023-02-02T00:15:42;99234.56;;;2.38;67.42
74798;BME280;63326;45.088;7.658;2023-02-02T00:18:09;99221.66;;;2.22;67.35
74798;BME280;63326;45.088;7.658;2023-02-02T00:20:36;99245.03;;;2.39;67.24
74798;BME280;63326;45.088;7.658;2023-02-02T00:23:03;99243.34;;;2.38;67.52
74798;BME280;63326;45.088;7.658;2023-02-02T00:25:30;99238.63;;;2.30;67.57
74798;BME280;63326;45.088;7.658;2023-02-02T00:27:57;99150.44;;;1.72;67.72
74798;BME280;63326;45.088;7.658;2023-02-02T00:30:24;99164.28;;;1.76;67.97
74798;BME280;63326;45.088;7.658;2023-02-02T00:32:51;99229.59;;;2.22;68.56
74798;BME280;63326;45.088;7.658;2023-02-02T00:35:19;99215.84;;;2.06;68.06
74798;BME280;63326;45.088;7.658;2023-02-02T00:37:45;99227.16;;;2.08;68.52
74798;BME280;63326;45.088;7.658;2023-02-02T00:40:12;99230.91;;;2.16;68.77
74798;BME280;63326;45.088;7.658;2023-02-02T00:42:39;99231.22;;;2.12;68.57
74798;BME280;63326;45.088;7.658;2023-02-02T00:45:06;99192.25;;;2.02;68.88
74798;BME280;63326;45.088;7.658;2023-02-02T00:47:46;99226.75;;;2.36;67.91
74798;BME280;63326;45.088;7.658;2023-02-02T00:50:15;99205.25;;;2.06;68.14
74798;BME280;63326;45.088;7.658;2023-02-02T00:52:42;99213.06;;;2.07;68.63
74798;BME280;63326;45.088;7.658;2023-02-02T00:55:10;99234.72;;;2.12;68.41
74798;BME280;63326;45.088;7.658;2023-02-02T00:57:37;99242.63;;;2.01;68.59
74798;BME280;63326;45.088;7.658;2023-02-02T01:00:09;99240.66;;;1.92;68.91
74798;BME280;63326;45.088;7.658;2023-02-02T01:02:37;99250.84;;;1.85;69.26
74798;BME280;63326;45.088;7.658;2023-02-02T01:05:05;99238.50;;;1.73;69.61
74798;BME280;63326;45.088;7.658;2023-02-02T01:07:31;99246.22;;;1.76;69.28
74798;BME280;63326;45.088;7.658;2023-02-02T01:09:58;99233.81;;;1.53;69.90
74798;BME280;63326;45.088;7.658;2023-02-02T01:12:25;99178.81;;;1.10;69.95
74798;BME280;63326;45.088;7.658;2023-02-02T01:14:51;99204.50;;;1.32;69.86
74798;BME280;63326;45.088;7.658;2023-02-02T01:17:19;99240.06;;;1.52;69.70
74798;BME280;63326;45.088;7.658;2023-02-02T01:19:46;99233.81;;;1.53;69.72
74798;BME280;63326;45.088;7.658;2023-02-02T01:22:13;99245.75;;;1.58;69.70
74798;BME280;63326;45.088;7.658;2023-02-02T01:24:39;99260.47;;;1.50;70.06
74798;BME280;63326;45.088;7.658;2023-02-02T01:27:06;99235.06;;;1.36;70.37
74798;BME280;63326;45.088;7.658;2023-02-02T01:29:33;99202.16;;;1.16;71.21
74798;BME280;63326;45.088;7.658;2023-02-02T01:31:59;99240.53;;;1.33;70.48
74798;BME280;63326;45.088;7.658;2023-02-02T01:34:26;99252.28;;;1.29;71.00
74798;BME280;63326;45.088;7.658;2023-02-02T01:36:53;99251.78;;;1.24;71.33
74798;BME280;63326;45.088;7.658;2023-02-02T01:39:20;99233.84;;;1.16;70.63
74798;BME280;63326;45.088;7.658;2023-02-02T01:41:46;99241.22;;;1.11;71.05
74798;BME280;63326;45.088;7.658;2023-02-02T01:47:18;99258.84;;;1.36;69.94
74798;BME280;63326;45.088;7.658;2023-02-02T01:49:46;99255.88;;;1.28;70.32
74798;BME280;63326;45.088;7.658;2023-02-02T01:52:16;99224.56;;;0.98;70.36
74798;BME280;63326;45.088;7.658;2023-02-02T01:54:49;99248.00;;;1.15;71.13
74798;BME280;63326;45.088;7.658;2023-02-02T01:57:59;99259.38;;;1.28;71.02
74798;BME280;63326;45.088;7.658;2023-02-02T02:00:27;99255.81;;;1.17;70.48
74798;BME280;63326;45.088;7.658;2023-02-02T02:02:59;99258.56;;;1.15;70.50
74798;BME280;63326;45.088;7.658;2023-02-02T02:05:31;99224.47;;;0.86;71.38
74798;BME280;63326;45.088;7.658;2023-02-02T02:08:13;99256.78;;;1.03;71.33
74798;BME280;63326;45.088;7.658;2023-02-02T02:10:40;99227.75;;;0.90;70.84
74798;BME280;63326;45.088;7.658;2023-02-02T02:13:07;99221.09;;;0.84;70.46
74798;BME280;63326;45.088;7.658;2023-02-02T02:15:42;99223.00;;;0.82;70.92
74798;BME280;63326;45.088;7.658;2023-02-02T02:19:04;99249.06;;;1.00;70.51
74798;BME280;63326;45.088;7.658;2023-02-02T02:36:43;99237.34;;;1.04;70.58
74798;BME280;63326;45.088;7.658;2023-02-02T02:42:24;99243.28;;;0.95;69.98
74798;BME280;63326;45.088;7.658;2023-02-02T02:44:55;99190.94;;;0.63;69.98
74798;BME280;63326;45.088;7.658;2023-02-02T02:47:22;99207.47;;;0.78;69.20
74798;BME280;63326;45.088;7.658;2023-02-02T02:49:49;99244.97;;;0.96;68.98
74798;BME280;63326;45.088;7.658;2023-02-02T02:52:16;99244.00;;;0.97;70.23
74798;BME280;63326;45.088;7.658;2023-02-02T02:54:46;99220.78;;;0.89;69.53
74798;BME280;63326;45.088;7.658;2023-02-02T03:06:03;99242.63;;;1.04;69.52
74798;BME280;63326;45.088;7.658;2023-02-02T03:08:38;99241.03;;;1.01;69.50
74798;BME280;63326;45.088;7.658;2023-02-02T03:11:07;99221.50;;;0.91;69.29
74798;BME280;63326;45.088;7.658;2023-02-02T03:13:36;99255.28;;;0.99;69.68
74798;BME280;63326;45.088;7.658;2023-02-02T03:16:03;99187.03;;;0.56;69.59
74798;BME280;63326;45.088;7.658;2023-02-02T03:18:31;99254.25;;;0.89;69.93
74798;BME280;63326;45.088;7.658;2023-02-02T03:20:59;99232.81;;;0.80;69.44
74798;BME280;63326;45.088;7.658;2023-02-02T03:23:26;99229.78;;;0.74;69.34
74798;BME280;63326;45.088;7.658;2023-02-02T03:25:53;99221.09;;;0.59;69.34
74798;BME280;63326;45.088;7.658;2023-02-02T03:28:22;99241.19;;;0.74;69.57
74798;BME280;63326;45.088;7.658;2023-02-02T03:30:49;99202.63;;;0.46;69.35
74798;BME280;63326;45.088;7.658;2023-02-02T03:33:17;99216.03;;;0.56;69.83
74798;BME280;63326;45.088;7.658;2023-02-02T03:35:44;99229.13;;;0.70;69.65
74798;BME280;63326;45.088;7.658;2023-02-02T03:38:11;99261.03;;;0.93;69.82
74798;BME280;63326;45.088;7.658;2023-02-02T03:40:38;99187.88;;;0.44;69.86
74798;BME280;63326;45.088;7.658;2023-02-02T03:43:06;99224.38;;;0.50;69.89
74798;BME280;63326;45.088;7.658;2023-02-02T03:45:33;99271.25;;;0.84;70.36
74798;BME280;63326;45.088;7.658;2023-02-02T03:48:03;99265.31;;;0.81;69.59
74798;BME280;63326;45.088;7.658;2023-02-02T03:50:31;99242.53;;;0.67;69.35
74798;BME280;63326;45.088;7.658;2023-02-02T03:52:57;99275.03;;;0.80;69.16
74798;BME280;63326;45.088;7.658;2023-02-02T03:55:24;99232.16;;;0.39;69.98
74798;BME280;63326;45.088;7.658;2023-02-02T03:57:51;99267.25;;;0.66;69.86
74798;BME280;63326;45.088;7.658;2023-02-02T04:00:18;99255.28;;;0.61;70.48
74798;BME280;63326;45.088;7.658;2023-02-02T04:02:45;99268.81;;;0.56;69.90
74798;BME280;63326;45.088;7.658;2023-02-02T04:05:11;99233.56;;;0.32;70.65
74798;BME280;63326;45.088;7.658;2023-02-02T04:07:38;99241.53;;;0.30;70.71
74798;BME280;63326;45.088;7.658;2023-02-02T04:10:05;99294.47;;;0.54;70.89
74798;BME280;63326;45.088;7.658;2023-02-02T04:12:31;99182.88;;;0.01;71.05
74798;BME280;63326;45.088;7.658;2023-02-02T04:14:58;99284.47;;;0.72;70.81
74798;BME280;63326;45.088;7.658;2023-02-02T04:17:24;99286.66;;;0.65;70.39
74798;BME280;63326;45.088;7.658;2023-02-02T04:19:51;99292.06;;;0.64;71.11
74798;BME280;63326;45.088;7.658;2023-02-02T04:22:24;99289.53;;;0.62;71.02
74798;BME280;63326;45.088;7.658;2023-02-02T04:24:51;99264.72;;;0.52;70.64
74798;BME280;63326;45.088;7.658;2023-02-02T04:27:18;99253.38;;;0.37;70.96
74798;BME280;63326;45.088;7.658;2023-02-02T04:29:45;99275.16;;;0.53;71.44
74798;BME280;63326;45.088;7.658;2023-02-02T04:32:14;99275.56;;;0.47;71.24
74798;BME280;63326;45.088;7.658;2023-02-02T04:34:41;99275.25;;;0.52;71.69
74798;BME280;63326;45.088;7.658;2023-02-02T04:37:09;99289.53;;;0.62;71.02
74798;BME280;63326;45.088;7.658;2023-02-02T04:39:35;99292.66;;;0.54;71.33
74798;BME280;63326;45.088;7.658;2023-02-02T04:42:02;99300.25;;;0.46;72.21
74798;BME280;63326;45.088;7.658;2023-02-02T04:44:29;99300.97;;;0.48;71.91
74798;BME280;63326;45.088;7.658;2023-02-02T04:46:55;99301.59;;;0.39;72.02
74798;BME280;63326;45.088;7.658;2023-02-02T04:49:22;99307.00;;;0.50;71.93
74798;BME280;63326;45.088;7.658;2023-02-02T04:51:49;99314.84;;;0.52;71.69
74798;BME280;63326;45.088;7.658;2023-02-02T04:54:16;99300.47;;;0.43;71.99
74798;BME280;63326;45.088;7.658;2023-02-02T04:56:42;99260.94;;;0.16;72.28
74798;BME280;63326;45.088;7.658;2023-02-02T04:59:09;99300.75;;;0.39;72.29
74798;BME280;63326;45.088;7.658;2023-02-02T05:01:36;99295.59;;;0.37;72.25
74798;BME280;63326;45.088;7.658;2023-02-02T05:04:02;99302.19;;;0.30;72.94
74798;BME280;63326;45.088;7.658;2023-02-02T05:06:29;99294.94;;;0.21;72.76
74798;BME280;63326;45.088;7.658;2023-02-02T05:08:55;99283.91;;;0.02;73.42
74798;BME280;63326;45.088;7.658;2023-02-02T05:11:22;99310.19;;;0.16;73.75
74798;BME280;63326;45.088;7.658;2023-02-02T05:13:51;99280.41;;;0.01;74.08
74798;BME280;63326;45.088;7.658;2023-02-02T05:16:19;99298.78;;;0.03;73.52
74798;BME280;63326;45.088;7.658;2023-02-02T05:18:52;99296.97;;;0.03;74.49
74798;BME280;63326;45.088;7.658;2023-02-02T05:21:20;99279.91;;;0.09;74.96
74798;BME280;63326;45.088;7.658;2023-02-02T05:23:47;99323.50;;;0.27;74.38
74798;BME280;63326;45.088;7.658;2023-02-02T05:26:16;99316.88;;;0.21;75.06
74798;BME280;63326;45.088;7.658;2023-02-02T05:28:44;99284.03;;;0.13;75.37
74798;BME280;63326;45.088;7.658;2023-02-02T05:31:11;99337.16;;;0.34;75.63
74798;BME280;63326;45.088;7.658;2023-02-02T05:33:37;99328.94;;;0.38;76.34
74798;BME280;63326;45.088;7.658;2023-02-02T05:36:04;99328.28;;;0.35;75.00
74798;BME280;63326;45.088;7.658;2023-02-02T05:38:31;99333.78;;;0.32;75.09
74798;BME280;63326;45.088;7.658;2023-02-02T05:40:59;99328.25;;;0.22;74.57
74798;BME280;63326;45.088;7.658;2023-02-02T05:43:27;99329.94;;;0.23;75.91
74798;BME280;63326;45.088;7.658;2023-02-02T05:45:54;99337.63;;;0.13;75.46
74798;BME280;63326;45.088;7.658;2023-02-02T05:48:20;99338.22;;;0.04;76.22
74798;BME280;63326;45.088;7.658;2023-02-02T05:50:56;99345.16;;;0.05;76.30
74798;BME280;63326;45.088;7.658;2023-02-02T05:53:26;99338.25;;;-0.10;76.84
74798;BME280;63326;45.088;7.658;2023-02-02T05:55:52;99354.22;;;0.01;76.93
74798;BME280;63326;45.088;7.658;2023-02-02T05:58:19;99356.47;;;0.07;77.68
74798;BME280;63326;45.088;7.658;2023-02-02T06:00:46;99361.44;;;0.12;77.50
74798;BME280;63326;45.088;7.658;2023-02-02T06:03:12;99363.03;;;0.14;77.52
74798;BME280;63326;45.088;7.658;2023-02-02T06:05:39;99364.41;;;0.20;77.81
74798;BME280;63326;45.088;7.658;2023-02-02T06:08:05;99371.53;;;0.32;77.89
74798;BME280;63326;45.088;7.658;2023-02-02T06:10:32;99339.31;;;0.14;77.07
74798;BME280;63326;45.088;7.658;2023-02-02T06:12:59;99357.81;;;0.27;77.73
74798;BME280;63326;45.088;7.658;2023-02-02T06:15:25;99361.19;;;0.29;78.00
74798;BME280;63326;45.088;7.658;2023-02-02T06:17:54;99362.72;;;0.19;77.74
74798;BME280;63326;45.088;7.658;2023-02-02T06:20:20;99350.78;;;0.13;77.59
74798;BME280;63326;45.088;7.658;2023-02-02T06:22:47;99352.69;;;0.11;77.32
74798;BME280;63326;45.088;7.658;2023-02-02T06:25:14;99383.78;;;0.33;78.04
74798;BME280;63326;45.088;7.658;2023-02-02T06:27:41;99387.44;;;0.31;77.66
74798;BME280;63326;45.088;7.658;2023-02-02T06:30:08;99387.06;;;0.37;77.44
74798;BME280;63326;45.088;7.658;2023-02-02T06:32:35;99383.88;;;0.32;77.79
74798;BME280;63326;45.088;7.658;2023-02-02T06:35:01;99375.31;;;0.28;77.25
74798;BME280;63326;45.088;7.658;2023-02-02T06:37:28;99355.50;;;0.08;76.84
74798;BME280;63326;45.088;7.658;2023-02-02T06:39:56;99396.88;;;0.35;77.09
74798;BME280;63326;45.088;7.658;2023-02-02T06:42:22;99346.59;;;-0.04;77.80
74798;BME280;63326;45.088;7.658;2023-02-02T06:44:49;99348.00;;;0.02;77.57
74798;BME280;63326;45.088;7.658;2023-02-02T06:47:16;99400.03;;;0.40;77.39
74798;BME280;63326;45.088;7.658;2023-02-02T06:49:42;99412.28;;;0.41;77.14
74798;BME280;63326;45.088;7.658;2023-02-02T06:52:09;99411.19;;;0.31;76.81
74798;BME280;63326;45.088;7.658;2023-02-02T06:54:35;99415.47;;;0.19;77.20
74798;BME280;63326;45.088;7.658;2023-02-02T06:57:02;99437.41;;;0.19;76.85
74798;BME280;63326;45.088;7.658;2023-02-02T06:59:28;99410.81;;;-0.05;77.28
74798;BME280;63326;45.088;7.658;2023-02-02T07:01:55;99449.63;;;0.20;77.85
74798;BME280;63326;45.088;7.658;2023-02-02T07:04:21;99448.72;;;0.21;77.10
74798;BME280;63326;45.088;7.658;2023-02-02T07:06:48;99393.69;;;-0.12;77.06
74798;BME280;63326;45.088;7.658;2023-02-02T07:09:15;99440.97;;;0.18;77.74
74798;BME280;63326;45.088;7.658;2023-02-02T07:11:43;99448.06;;;0.18;77.40
74798;BME280;63326;45.088;7.658;2023-02-02T07:14:11;99432.22;;;0.18;76.84
74798;BME280;63326;45.088;7.658;2023-02-02T07:16:37;99440.72;;;0.23;76.59
74798;BME280;63326;45.088;7.658;2023-02-02T07:19:04;99436.19;;;0.25;76.19
74798;BME280;63326;45.088;7.658;2023-02-02T07:21:30;99431.00;;;0.23;76.86
74798;BME280;63326;45.088;7.658;2023-02-02T07:24:03;99454.16;;;0.33;75.81
74798;BME280;63326;45.088;7.658;2023-02-02T07:26:30;99432.09;;;0.34;75.94
74798;BME280;63326;45.088;7.658;2023-02-02T07:28:59;99434.06;;;0.44;74.90
74798;BME280;63326;45.088;7.658;2023-02-02T07:31:26;99418.91;;;0.61;74.74
74798;BME280;63326;45.088;7.658;2023-02-02T07:33:53;99450.38;;;1.03;73.45
74798;BME280;63326;45.088;7.658;2023-02-02T07:36:21;99454.00;;;1.40;72.93
74798;BME280;63326;45.088;7.658;2023-02-02T07:38:51;99419.88;;;1.50;71.44
74798;BME280;63326;45.088;7.658;2023-02-02T07:41:23;99446.41;;;1.87;70.03
74798;BME280;63326;45.088;7.658;2023-02-02T07:43:50;99451.50;;;2.26;69.31
74798;BME280;63326;45.088;7.658;2023-02-02T07:46:17;99451.28;;;2.53;68.27
74798;BME280;63326;45.088;7.658;2023-02-02T07:48:44;99443.53;;;2.87;66.75
74798;BME280;63326;45.088;7.658;2023-02-02T07:51:15;99440.28;;;3.30;65.74
74798;BME280;63326;45.088;7.658;2023-02-02T07:53:48;99425.00;;;3.56;63.42
74798;BME280;63326;45.088;7.658;2023-02-02T07:56:18;99442.53;;;3.92;61.75
74798;BME280;63326;45.088;7.658;2023-02-02T07:58:45;99440.09;;;4.11;60.18
74798;BME280;63326;45.088;7.658;2023-02-02T08:01:14;99456.00;;;4.22;61.40
74798;BME280;63326;45.088;7.658;2023-02-02T08:03:41;99433.00;;;4.55;59.75
74798;BME280;63326;45.088;7.658;2023-02-02T08:06:17;99451.25;;;4.48;58.69
74798;BME280;63326;45.088;7.658;2023-02-02T08:08:44;99435.53;;;4.88;58.66
74798;BME280;63326;45.088;7.658;2023-02-02T08:11:12;99444.94;;;5.45;56.99
74798;BME280;63326;45.088;7.658;2023-02-02T08:13:40;99429.28;;;5.73;55.38
74798;BME280;63326;45.088;7.658;2023-02-02T08:16:08;99448.66;;;5.85;54.37
74798;BME280;63326;45.088;7.658;2023-02-02T08:18:36;99414.25;;;6.23;53.73
74798;BME280;63326;45.088;7.658;2023-02-02T08:21:05;99453.47;;;7.00;53.16
74798;BME280;63326;45.088;7.658;2023-02-02T08:23:32;99447.81;;;7.42;51.56
74798;BME280;63326;45.088;7.658;2023-02-02T08:26:25;99458.28;;;7.72;49.84
74798;BME280;63326;45.088;7.658;2023-02-02T08:28:55;99464.63;;;8.18;48.42
74798;BME280;63326;45.088;7.658;2023-02-02T08:31:25;99430.22;;;8.43;48.03
74798;BME280;63326;45.088;7.658;2023-02-02T08:33:52;99456.00;;;8.97;46.71
74798;BME280;63326;45.088;7.658;2023-02-02T08:36:22;99415.66;;;9.08;46.23
74798;BME280;63326;45.088;7.658;2023-02-02T08:38:49;99455.47;;;9.73;44.26
74798;BME280;63326;45.088;7.658;2023-02-02T08:41:18;99443.22;;;9.96;42.95
74798;BME280;63326;45.088;7.658;2023-02-02T08:43:45;99452.22;;;10.21;42.67
74798;BME280;63326;45.088;7.658;2023-02-02T08:46:15;99436.88;;;10.31;41.82
74798;BME280;63326;45.088;7.658;2023-02-02T08:48:43;99446.59;;;10.83;41.68
74798;BME280;63326;45.088;7.658;2023-02-02T08:51:11;99449.78;;;10.78;40.58
74798;BME280;63326;45.088;7.658;2023-02-02T08:53:41;99444.28;;;11.12;40.82
74798;BME280;63326;45.088;7.658;2023-02-02T08:56:15;99430.56;;;11.15;39.46
74798;BME280;63326;45.088;7.658;2023-02-02T08:58:45;99451.19;;;11.15;39.33
74798;BME280;63326;45.088;7.658;2023-02-02T09:03:43;99459.41;;;11.30;39.95
74798;BME280;63326;45.088;7.658;2023-02-02T09:06:13;99465.28;;;11.98;39.51
74798;BME280;63326;45.088;7.658;2023-02-02T09:08:40;99463.97;;;12.33;38.69
74798;BME280;63326;45.088;7.658;2023-02-02T09:11:12;99468.28;;;11.79;40.03
74798;BME280;63326;45.088;7.658;2023-02-02T09:13:40;99479.19;;;12.10;39.59
74798;BME280;63326;45.088;7.658;2023-02-02T09:16:10;99451.00;;;11.73;41.73
74798;BME280;63326;45.088;7.658;2023-02-02T09:18:38;99474.00;;;12.00;41.85
74798;BME280;63326;45.088;7.658;2023-02-02T09:21:08;99478.13;;;12.27;41.35
74798;BME280;63326;45.088;7.658;2023-02-02T09:23:38;99463.41;;;12.07;41.58
74798;BME280;63326;45.088;7.658;2023-02-02T09:26:13;99445.50;;;12.38;40.45
74798;BME280;63326;45.088;7.658;2023-02-02T09:28:43;99456.69;;;12.03;40.96
74798;BME280;63326;45.088;7.658;2023-02-02T09:31:10;99478.00;;;12.04;40.56
74798;BME280;63326;45.088;7.658;2023-02-02T09:33:38;99477.84;;;11.73;41.84
74798;BME280;63326;45.088;7.658;2023-02-02T09:36:10;99476.03;;;11.25;42.82
74798;BME280;63326;45.088;7.658;2023-02-02T09:38:37;99479.53;;;11.17;42.82
74798;BME280;63326;45.088;7.658;2023-02-02T09:43:51;99484.72;;;11.11;43.10
74798;BME280;63326;45.088;7.658;2023-02-02T09:46:42;99475.50;;;11.78;41.17
74798;BME280;63326;45.088;7.658;2023-02-02T09:49:18;99475.78;;;12.63;39.85
74798;BME280;63326;45.088;7.658;2023-02-02T09:51:55;99465.38;;;12.60;39.49
74798;BME280;63326;45.088;7.658;2023-02-02T09:54:32;99481.34;;;12.93;37.97
74798;BME280;63326;45.088;7.658;2023-02-02T09:57:04;99452.56;;;13.24;37.75
74798;BME280;63326;45.088;7.658;2023-02-02T09:59:38;99472.44;;;13.99;35.69
74798;BME280;63326;45.088;7.658;2023-02-02T10:02:23;99461.25;;;13.35;36.72
74798;BME280;63326;45.088;7.658;2023-02-02T10:04:55;99477.66;;;13.86;36.68
74798;BME280;63326;45.088;7.658;2023-02-02T10:07:31;99475.47;;;14.33;35.22
74798;BME280;63326;45.088;7.658;2023-02-02T10:10:02;99471.47;;;14.44;34.86
74798;BME280;63326;45.088;7.658;2023-02-02T10:12:53;99477.78;;;14.36;34.66
74798;BME280;63326;45.088;7.658;2023-02-02T10:15:43;99441.63;;;14.01;35.29
74798;BME280;63326;45.088;7.658;2023-02-02T10:24:22;99469.22;;;15.13;33.23
74798;BME280;63326;45.088;7.658;2023-02-02T10:26:52;99413.66;;;15.04;33.14
74798;BME280;63326;45.088;7.658;2023-02-02T10:32:12;99463.38;;;16.71;31.02
74798;BME280;63326;45.088;7.658;2023-02-02T10:34:53;99459.69;;;16.51;30.62
74798;BME280;63326;45.088;7.658;2023-02-02T10:43:29;99441.06;;;17.50;30.24
74798;BME280;63326;45.088;7.658;2023-02-02T10:46:17;99444.53;;;16.56;30.05
74798;BME280;63326;45.088;7.658;2023-02-02T10:48:47;99430.41;;;16.67;30.38
74798;BME280;63326;45.088;7.658;2023-02-02T10:51:26;99438.56;;;16.26;30.60
74798;BME280;63326;45.088;7.658;2023-02-02T10:53:56;99427.25;;;17.25;29.47
74798;BME280;63326;45.088;7.658;2023-02-02T10:56:34;99426.00;;;17.34;29.91
74798;BME280;63326;45.088;7.658;2023-02-02T11:01:32;99408.16;;;16.72;29.83
74798;BME280;63326;45.088;7.658;2023-02-02T11:03:59;99393.50;;;17.74;28.19
74798;BME280;63326;45.088;7.658;2023-02-02T11:06:44;99409.47;;;18.86;27.57
74798;BME280;63326;45.088;7.658;2023-02-02T11:09:23;99411.56;;;16.87;28.78
74798;BME280;63326;45.088;7.658;2023-02-02T11:11:59;99406.81;;;17.36;28.09
74798;BME280;63326;45.088;7.658;2023-02-02T11:14:38;99399.75;;;15.78;31.08
74798;BME280;63326;45.088;7.658;2023-02-02T11:17:24;99397.28;;;16.59;30.40
74798;BME280;63326;45.088;7.658;2023-02-02T11:19:51;99401.31;;;16.83;29.20
74798;BME280;63326;45.088;7.658;2023-02-02T11:22:33;99383.28;;;17.43;28.18
74798;BME280;63326;45.088;7.658;2023-02-02T11:25:25;99370.13;;;17.13;28.98
74798;BME280;63326;45.088;7.658;2023-02-02T11:27:53;99366.34;;;17.87;27.84
74798;BME280;63326;45.088;7.658;2023-02-02T11:30:22;99361.91;;;18.12;27.49
74798;BME280;63326;45.088;7.658;2023-02-02T11:32:52;99357.59;;;17.85;28.17
74798;BME280;63326;45.088;7.658;2023-02-02T11:35:27;99365.41;;;18.78;26.35
74798;BME280;63326;45.088;7.658;2023-02-02T11:38:14;99376.84;;;19.18;25.81
74798;BME280;63326;45.088;7.658;2023-02-02T11:40:58;99366.06;;;19.86;24.90
74798;BME280;63326;45.088;7.658;2023-02-02T11:43:33;99361.19;;;17.79;27.47
74798;BME280;63326;45.088;7.658;2023-02-02T11:46:04;99380.31;;;18.04;27.58
74798;BME280;63326;45.088;7.658;2023-02-02T11:48:37;99368.09;;;18.39;27.16
74798;BME280;63326;45.088;7.658;2023-02-02T11:51:05;99365.38;;;18.39;27.21
74798;BME280;63326;45.088;7.658;2023-02-02T11:53:45;99364.91;;;17.91;27.76
74798;BME280;63326;45.088;7.658;2023-02-02T11:56:22;99357.94;;;18.73;26.81
74798;BME280;63326;45.088;7.658;2023-02-02T11:58:52;99354.06;;;18.87;26.70
74798;BME280;63326;45.088;7.658;2023-02-02T12:01:27;99342.63;;;19.10;26.76
74798;BME280;63326;45.088;7.658;2023-02-02T12:03:56;99340.19;;;19.27;25.81
74798;BME280;63326;45.088;7.658;2023-02-02T12:06:35;99325.53;;;18.27;26.59
74798;BME280;63326;45.088;7.658;2023-02-02T12:09:23;99332.41;;;19.62;25.13
74798;BME280;63326;45.088;7.658;2023-02-02T12:28:24;99301.41;;;21.08;22.92
74798;BME280;63326;45.088;7.658;2023-02-02T12:36:45;99290.16;;;22.10;21.24
74798;BME280;63326;45.088;7.658;2023-02-02T12:58:38;99242.25;;;21.67;19.40
74798;BME280;63326;45.088;7.658;2023-02-02T13:01:28;99269.22;;;22.16;20.52
74798;BME280;63326;45.088;7.658;2023-02-02T13:04:22;99258.56;;;22.42;19.33
74798;BME280;63326;45.088;7.658;2023-02-02T13:10:15;99268.13;;;22.28;19.93
74798;BME280;63326;45.088;7.658;2023-02-02T13:12:49;99256.16;;;22.06;20.17
74798;BME280;63326;45.088;7.658;2023-02-02T13:15:22;99236.13;;;22.12;20.07
74798;BME280;63326;45.088;7.658;2023-02-02T13:17:59;99246.00;;;23.20;19.10
74798;BME280;63326;45.088;7.658;2023-02-02T13:20:42;99249.31;;;23.22;18.81
74798;BME280;63326;45.088;7.658;2023-02-02T13:23:21;99252.72;;;23.30;18.32
74798;BME280;63326;45.088;7.658;2023-02-02T13:26:03;99249.91;;;21.94;19.57
74798;BME280;63326;45.088;7.658;2023-02-02T13:28:40;99241.44;;;21.67;19.23
74798;BME280;63326;45.088;7.658;2023-02-02T13:31:14;99249.03;;;23.79;17.52
74798;BME280;63326;45.088;7.658;2023-02-02T13:33:43;99234.25;;;24.73;16.71
74798;BME280;63326;45.088;7.658;2023-02-02T13:36:20;99236.38;;;24.17;17.05
74798;BME280;63326;45.088;7.658;2023-02-02T13:38:56;99237.47;;;24.97;16.08
74798;BME280;63326;45.088;7.658;2023-02-02T13:41:24;99238.25;;;25.67;15.17
74798;BME280;63326;45.088;7.658;2023-02-02T13:47:29;99245.91;;;22.98;17.69
74798;BME280;63326;45.088;7.658;2023-02-02T13:50:04;99234.91;;;24.31;16.86
74798;BME280;63326;45.088;7.658;2023-02-02T13:53:03;99237.56;;;25.07;16.30
74798;BME280;63326;45.088;7.658;2023-02-02T13:58:42;99235.75;;;24.32;16.17
74798;BME280;63326;45.088;7.658;2023-02-02T14:01:14;99227.06;;;24.72;15.46
74798;BME280;63326;45.088;7.658;2023-02-02T14:03:44;99231.72;;;24.98;14.96
74798;BME280;63326;45.088;7.658;2023-02-02T14:06:18;99228.81;;;24.29;15.90
74798;BME280;63326;45.088;7.658;2023-02-02T14:09:00;99233.84;;;24.91;14.17
74798;BME280;63326;45.088;7.658;2023-02-02T14:11:31;99243.22;;;24.41;14.93
74798;BME280;63326;45.088;7.658;2023-02-02T14:14:07;99232.34;;;25.90;14.49
74798;BME280;63326;45.088;7.658;2023-02-02T14:16:54;99233.03;;;25.65;14.25
74798;BME280;63326;45.088;7.658;2023-02-02T14:24:48;99224.03;;;23.93;15.53
74798;BME280;63326;45.088;7.658;2023-02-02T14:45:39;99251.47;;;23.98;14.98
74798;BME280;63326;45.088;7.658;2023-02-02T14:48:24;99243.34;;;23.81;14.60
74798;BME280;63326;45.088;7.658;2023-02-02T14:51:01;99256.19;;;22.91;15.07
74798;BME280;63326;45.088;7.658;2023-02-02T14:53:33;99237.56;;;22.77;15.85
74798;BME280;63326;45.088;7.658;2023-02-02T14:56:17;99239.53;;;23.10;14.79
74798;BME280;63326;45.088;7.658;2023-02-02T15:01:24;99230.50;;;22.92;14.96
74798;BME280;63326;45.088;7.658;2023-02-02T15:06:36;99230.38;;;24.20;14.08
74798;BME280;63326;45.088;7.658;2023-02-02T15:22:44;99259.38;;;24.38;13.32
74798;BME280;63326;45.088;7.658;2023-02-02T15:27:55;99234.59;;;23.45;14.03
74798;BME280;63326;45.088;7.658;2023-02-02T15:30:25;99239.25;;;23.83;13.86
74798;BME280;63326;45.088;7.658;2023-02-02T15:32:54;99252.59;;;23.41;14.15
74798;BME280;63326;45.088;7.658;2023-02-02T15:35:28;99240.41;;;22.82;14.67
74798;BME280;63326;45.088;7.658;2023-02-02T15:38:00;99258.50;;;23.16;14.94
74798;BME280;63326;45.088;7.658;2023-02-02T15:40:30;99263.47;;;22.86;14.94
74798;BME280;63326;45.088;7.658;2023-02-02T15:43:01;99282.44;;;22.35;15.56
74798;BME280;63326;45.088;7.658;2023-02-02T15:48:05;99241.69;;;21.30;16.26
74798;BME280;63326;45.088;7.658;2023-02-02T15:50:35;99266.31;;;21.82;16.40
74798;BME280;63326;45.088;7.658;2023-02-02T15:53:01;99261.69;;;21.82;16.41
74798;BME280;63326;45.088;7.658;2023-02-02T15:55:33;99277.19;;;21.94;16.36
74798;BME280;63326;45.088;7.658;2023-02-02T15:58:01;99251.72;;;21.88;15.99